Time;durP1;ratioP1;P1;durP2;ratioP2;P2;SDS_P1;SDS_P2;PMS_P1;PMS_P2;Temp;Humidity;BMP_temperature;BMP_pressure;BME280_temperature;BME280_humidity;BME280_pressure;Samples;Min_cycle;Max_cycle;Signal;HPM_P1;HPM_P2
2023/10/09 00:02:30;;;;;;;25.58;15.18;;;;;;;15.57;100.00;101911.28;5061010;28;20066;-65
2023/10/09 00:05:37;;;;;;;25.02;14.82;;;;;;;15.56;100.00;101904.09;5074379;28;20041;-64
2023/10/09 00:08:31;;;;;;;22.60;13.70;;;;;;;15.55;100.00;101903.28;5058487;28;20127;-64
2023/10/09 00:11:19;;;;;;;24.70;13.50;;;;;;;15.54;100.00;101907.16;5072975;28;20056;-64
2023/10/09 00:14:07;;;;;;;22.42;14.07;;;;;;;15.54;100.00;101906.34;5073750;28;20079;-64
2023/10/09 00:20:08;;;;;;;25.25;14.05;;;;;;;15.54;100.00;101885.16;5040106;28;20126;-64
2023/10/09 00:22:58;;;;;;;24.23;14.00;;;;;;;15.54;100.00;101881.59;5054166;28;20484;-64
2023/10/09 00:26:06;;;;;;;24.98;14.60;;;;;;;15.52;100.00;101870.88;5073491;28;20048;-63
2023/10/09 00:28:55;;;;;;;22.50;14.57;;;;;;;15.51;100.00;101873.91;5055442;28;20060;-63
2023/10/09 00:31:50;;;;;;;21.50;13.75;;;;;;;15.50;100.00;101877.75;5071889;28;20186;-64
2023/10/09 00:34:39;;;;;;;22.90;13.60;;;;;;;15.49;100.00;101871.44;5072679;28;20191;-63
2023/10/09 00:37:33;;;;;;;23.50;13.68;;;;;;;15.49;100.00;101874.19;5071362;28;20283;-64
2023/10/09 00:40:27;;;;;;;22.92;13.88;;;;;;;15.48;100.00;101864.28;5052721;28;20079;-65
2023/10/09 00:43:19;;;;;;;23.13;13.93;;;;;;;15.48;100.00;101868.97;5038937;28;20049;-64
2023/10/09 00:46:12;;;;;;;27.98;14.25;;;;;;;15.48;100.00;101874.47;5037881;28;20049;-64
2023/10/09 00:49:02;;;;;;;22.63;13.48;;;;;;;15.49;100.00;101884.31;5042466;28;20548;-65
2023/10/09 00:51:56;;;;;;;23.17;13.63;;;;;;;15.49;100.00;101876.09;5057916;28;20044;-64
2023/10/09 00:54:50;;;;;;;26.33;13.95;;;;;;;15.50;100.00;101884.06;5072580;28;20141;-64
2023/10/09 00:57:39;;;;;;;24.23;13.30;;;;;;;15.52;100.00;101881.06;5072103;28;20393;-64
2023/10/09 01:00:45;;;;;;;21.23;13.65;;;;;;;15.52;100.00;101873.63;5050732;28;20120;-65
2023/10/09 01:03:34;;;;;;;22.55;12.77;;;;;;;15.51;100.00;101880.25;5063740;28;20127;-64
2023/10/09 01:06:27;;;;;;;20.83;13.10;;;;;;;15.52;100.00;101872.81;5074479;28;20106;-64
2023/10/09 01:09:20;;;;;;;23.73;13.35;;;;;;;15.53;100.00;101874.44;5032189;28;20096;-65
2023/10/09 01:12:16;;;;;;;19.95;12.38;;;;;;;15.55;100.00;101875.00;5058448;28;20048;-64
2023/10/09 01:15:07;;;;;;;22.35;12.88;;;;;;;15.55;100.00;101864.00;5057458;28;20049;-64
2023/10/09 01:17:55;;;;;;;22.83;13.13;;;;;;;15.54;100.00;101868.69;5057954;28;20056;-64
2023/10/09 01:20:45;;;;;;;21.00;13.80;;;;;;;15.57;100.00;101866.50;5073023;28;20122;-63
2023/10/09 01:23:33;;;;;;;21.00;12.23;;;;;;;15.55;100.00;101866.75;5072787;28;20127;-65
2023/10/09 01:26:22;;;;;;;20.67;12.02;;;;;;;15.56;100.00;101868.41;5057492;28;20049;-63
2023/10/09 01:29:21;;;;;;;23.42;12.90;;;;;;;15.56;100.00;101860.16;5063984;28;20056;-65
2023/10/09 01:32:16;;;;;;;22.98;13.32;;;;;;;15.57;100.00;101867.31;5037113;28;20052;-65
2023/10/09 01:35:20;;;;;;;17.42;11.70;;;;;;;15.58;100.00;101860.69;5037184;28;20155;-64
2023/10/09 01:38:14;;;;;;;20.67;12.52;;;;;;;15.59;100.00;101864.31;5065917;28;20056;-63
2023/10/09 01:41:08;;;;;;;20.10;11.55;;;;;;;15.58;100.00;101863.44;5071053;28;20170;-64
2023/10/09 01:44:00;;;;;;;18.33;12.38;;;;;;;15.59;100.00;101867.06;5070241;28;20053;-64
2023/10/09 01:46:54;;;;;;;21.27;11.85;;;;;;;15.59;100.00;101862.38;5037382;28;20452;-63
2023/10/09 01:49:43;;;;;;;18.73;12.15;;;;;;;15.60;100.00;101860.44;5026435;28;20424;-63
2023/10/09 01:52:31;;;;;;;21.15;11.90;;;;;;;15.61;100.00;101864.81;5063548;28;20079;-64
2023/10/09 01:55:39;;;;;;;19.48;11.80;;;;;;;15.61;100.00;101849.19;5060533;28;20047;-63
2023/10/09 01:58:32;;;;;;;18.77;11.35;;;;;;;15.62;100.00;101856.31;5051777;28;20076;-65
2023/10/09 02:01:21;;;;;;;19.90;11.05;;;;;;;15.60;100.00;101850.28;5061902;28;20045;-63
2023/10/09 02:04:14;;;;;;;18.42;11.05;;;;;;;15.62;100.00;101850.00;5060083;28;20056;-63
2023/10/09 02:07:06;;;;;;;21.08;11.52;;;;;;;15.62;100.00;101848.06;5075767;28;20408;-63
2023/10/09 02:09:56;;;;;;;19.58;11.68;;;;;;;15.64;100.00;101856.03;5074855;28;20052;-64
2023/10/09 02:12:46;;;;;;;17.80;11.63;;;;;;;15.62;100.00;101853.56;5075499;28;20515;-64
2023/10/09 02:15:51;;;;;;;17.98;10.85;;;;;;;15.63;100.00;101849.72;5061052;28;20052;-64
2023/10/09 02:18:52;;;;;;;19.08;11.68;;;;;;;15.62;100.00;101848.06;5049302;28;20052;-63
2023/10/09 02:21:41;;;;;;;22.52;11.20;;;;;;;15.62;100.00;101839.84;5059929;28;20059;-63
2023/10/09 02:27:52;;;;;;;20.58;10.50;;;;;;;15.63;100.00;101840.66;5060515;28;20041;-64
2023/10/09 02:30:41;;;;;;;17.88;11.68;;;;;;;15.62;100.00;101847.25;5055952;28;20052;-64
2023/10/09 02:33:30;;;;;;;17.67;10.32;;;;;;;15.62;100.00;101823.34;5055927;28;20099;-65
2023/10/09 02:36:18;;;;;;;19.90;10.90;;;;;;;15.63;100.00;101819.50;5074714;28;20068;-65
2023/10/09 02:39:12;;;;;;;17.75;10.88;;;;;;;15.63;100.00;101816.75;5060715;28;20049;-64
2023/10/09 02:42:06;;;;;;;18.77;10.55;;;;;;;15.64;100.00;101817.59;5076053;28;20044;-64
2023/10/09 02:44:55;;;;;;;15.43;9.85;;;;;;;15.63;100.00;101811.25;5064745;28;20578;-64
2023/10/09 02:47:48;;;;;;;17.10;9.63;;;;;;;15.64;100.00;101809.34;5033501;28;20455;-64
2023/10/09 02:50:38;;;;;;;17.75;10.48;;;;;;;15.64;100.00;101806.59;5074984;28;20044;-64
2023/10/09 02:53:29;;;;;;;17.75;10.43;;;;;;;15.64;100.00;101812.91;5080090;28;20063;-65
2023/10/09 02:56:23;;;;;;;18.17;10.63;;;;;;;15.64;100.00;101803.84;5060194;28;20457;-64
2023/10/09 02:59:15;;;;;;;16.75;10.60;;;;;;;15.63;100.00;101805.75;5075258;28;20123;-62
2023/10/09 03:02:03;;;;;;;21.75;11.93;;;;;;;15.63;100.00;101810.44;5060769;28;20127;-64
2023/10/09 03:04:55;;;;;;;18.60;11.32;;;;;;;15.62;100.00;101809.63;5065755;28;20128;-64
2023/10/09 03:07:44;;;;;;;19.98;10.93;;;;;;;15.62;100.00;101806.88;5047314;28;20145;-63
2023/10/09 03:10:34;;;;;;;21.65;11.38;;;;;;;15.62;100.00;101806.88;5040125;28;20048;-63
2023/10/09 03:13:22;;;;;;;21.38;12.15;;;;;;;15.63;100.00;101804.94;5053728;28;20572;-64
2023/10/09 03:16:15;;;;;;;19.33;11.02;;;;;;;15.63;100.00;101799.44;5072974;28;20515;-63
2023/10/09 03:19:07;;;;;;;19.13;11.52;;;;;;;15.63;100.00;101794.75;5060876;28;20047;-64
2023/10/09 03:21:57;;;;;;;19.30;11.70;;;;;;;15.64;100.00;101790.13;5059647;28;20094;-63
2023/10/09 03:24:46;;;;;;;20.67;11.38;;;;;;;15.63;100.00;101788.44;5073607;28;20033;-65
2023/10/09 03:27:46;;;;;;;19.58;11.18;;;;;;;15.64;100.00;101796.44;5074341;28;20106;-65
2023/10/09 03:30:34;;;;;;;17.20;11.15;;;;;;;15.64;100.00;101785.44;5059494;28;20405;-64
2023/10/09 03:33:23;;;;;;;16.30;10.50;;;;;;;15.64;100.00;101773.63;5059195;28;20529;-65
2023/10/09 03:36:11;;;;;;;18.25;10.75;;;;;;;15.64;100.00;101768.13;5058309;28;20415;-65
2023/10/09 03:38:59;;;;;;;21.02;11.85;;;;;;;15.64;100.00;101773.63;5073045;28;20496;-64
2023/10/09 03:41:47;;;;;;;19.95;11.00;;;;;;;15.64;100.00;101768.94;5076317;28;20037;-64
2023/10/09 03:44:44;;;;;;;17.90;11.13;;;;;;;15.62;100.00;101768.41;5073581;28;20043;-64
2023/10/09 03:47:32;;;;;;;23.38;12.30;;;;;;;15.63;100.00;101772.78;5060790;28;20045;-64
2023/10/09 03:50:35;;;;;;;19.00;10.85;;;;;;;15.62;100.00;101771.16;5045941;28;20133;-64
2023/10/09 03:53:24;;;;;;;19.90;11.88;;;;;;;15.62;100.00;101776.66;5074176;28;20066;-64
2023/10/09 03:56:12;;;;;;;17.85;11.45;;;;;;;15.62;100.00;101776.66;5059962;28;20041;-64
2023/10/09 03:59:04;;;;;;;20.05;11.45;;;;;;;15.63;100.00;101764.53;5072986;28;20044;-61
2023/10/09 04:01:53;;;;;;;24.88;12.05;;;;;;;15.64;100.00;101773.63;5070909;28;20143;-63
2023/10/09 04:04:46;;;;;;;18.58;11.07;;;;;;;15.64;100.00;101768.94;5056358;28;20048;-63
2023/10/09 04:07:35;;;;;;;17.65;10.77;;;;;;;15.64;100.00;101752.47;5072370;28;20048;-64
2023/10/09 04:13:34;;;;;;;19.67;11.90;;;;;;;15.66;100.00;101752.19;5071332;28;20047;-64
2023/10/09 04:16:34;;;;;;;21.08;11.15;;;;;;;15.66;100.00;101755.75;5072210;28;20056;-64
2023/10/09 04:19:22;;;;;;;20.25;12.25;;;;;;;15.66;100.00;101743.97;5072756;28;20055;-64
2023/10/09 04:22:25;;;;;;;20.48;12.70;;;;;;;15.64;100.00;101757.97;5057015;28;20037;-64
2023/10/09 04:25:24;;;;;;;23.02;12.15;;;;;;;15.66;100.00;101755.75;5044908;28;20155;-64
2023/10/09 04:31:06;;;;;;;24.50;12.35;;;;;;;15.64;100.00;101757.97;5072434;28;20052;-65
2023/10/09 04:34:21;;;;;;;27.17;13.27;;;;;;;15.64;100.00;101790.94;5071690;28;20051;-63
2023/10/09 04:40:11;;;;;;;18.63;12.05;;;;;;;15.64;100.00;101776.38;5071861;28;20079;-63
2023/10/09 04:43:05;;;;;;;22.00;11.98;;;;;;;15.63;100.00;101793.94;5072225;28;20178;-64
2023/10/09 04:46:07;;;;;;;21.75;12.85;;;;;;;15.61;100.00;101802.47;5072560;28;20040;-64
2023/10/09 04:48:55;;;;;;;24.17;14.05;;;;;;;15.60;100.00;101811.81;5071901;28;20124;-62
2023/10/09 04:51:59;;;;;;;26.60;14.20;;;;;;;15.58;100.00;101803.03;5073542;28;20485;-64
2023/10/09 04:55:15;;;;;;;27.65;15.32;;;;;;;15.56;100.00;101810.72;5073009;28;20036;-65
2023/10/09 05:03:56;;;;;;;22.73;13.13;;;;;;;15.57;100.00;101800.56;5057351;28;20091;-65
2023/10/09 05:06:57;;;;;;;24.17;14.00;;;;;;;15.56;100.00;101796.97;5072346;28;20054;-64
2023/10/09 05:10:17;;;;;;;23.55;12.77;;;;;;;15.60;100.00;101789.00;5057665;28;20063;-65
2023/10/09 05:13:08;;;;;;;20.55;11.77;;;;;;;15.60;100.00;101778.84;5054964;28;20401;-64
2023/10/09 05:15:57;;;;;;;19.23;13.60;;;;;;;15.60;100.00;101789.84;5071039;28;20056;-65
2023/10/09 05:19:08;;;;;;;20.10;13.30;;;;;;;15.61;100.00;101783.25;5071034;28;20532;-65
2023/10/09 05:22:04;;;;;;;22.20;12.27;;;;;;;15.63;100.00;101775.53;5064611;28;20053;-65
2023/10/09 05:24:54;;;;;;;23.67;13.23;;;;;;;15.62;100.00;101795.88;5057953;28;20142;-65
2023/10/09 05:27:50;;;;;;;21.45;12.55;;;;;;;15.61;100.00;101802.47;5071788;28;20056;-64
2023/10/09 05:30:41;;;;;;;18.02;11.02;;;;;;;15.64;100.00;101803.84;5072375;28;20508;-65
2023/10/09 05:33:33;;;;;;;20.90;13.02;;;;;;;15.63;100.00;101816.75;5037993;28;20037;-64
2023/10/09 05:39:22;;;;;;;19.52;11.57;;;;;;;15.60;100.00;101817.31;5055444;28;20127;-64
2023/10/09 05:42:17;;;;;;;23.73;13.52;;;;;;;15.58;100.00;101819.50;5068030;28;20626;-65
2023/10/09 05:48:48;;;;;;;19.00;12.75;;;;;;;15.61;100.00;101818.97;5054911;28;19920;-65
2023/10/09 06:03:54;;;;;;;23.80;13.50;;;;;;;15.61;100.00;101840.94;5069221;28;20043;-65
2023/10/09 06:06:44;;;;;;;18.33;11.30;;;;;;;15.64;100.00;101839.56;5056336;28;20048;-64
2023/10/09 06:09:49;;;;;;;19.50;12.27;;;;;;;15.62;100.00;101837.09;5067526;28;20048;-65
2023/10/09 06:16:09;;;;;;;22.65;12.07;;;;;;;15.63;100.00;101827.72;5052460;28;20085;-63
2023/10/09 06:19:11;;;;;;;19.65;12.98;;;;;;;15.63;100.00;101837.91;5021356;28;20642;-65
2023/10/09 06:24:54;;;;;;;20.23;11.75;;;;;;;15.64;100.00;101829.38;5065155;28;20036;-66
2023/10/09 06:30:35;;;;;;;17.50;11.55;;;;;;;15.63;100.00;101849.72;5038993;28;20048;-64
2023/10/09 06:33:29;;;;;;;20.35;11.90;;;;;;;15.65;100.00;101860.44;5053482;28;20049;-64
2023/10/09 06:36:17;;;;;;;24.05;13.38;;;;;;;15.66;100.00;101860.16;5064897;28;20135;-66
2023/10/09 06:45:20;;;;;;;21.17;11.48;;;;;;;15.69;100.00;101814.81;5070055;28;20047;-64
2023/10/09 06:48:40;;;;;;;21.02;11.57;;;;;;;15.70;100.00;101820.06;5059617;28;20063;-64
2023/10/09 06:54:16;;;;;;;22.17;12.48;;;;;;;15.68;100.00;101814.00;5069577;28;20074;-64
2023/10/09 06:57:13;;;;;;;19.20;10.57;;;;;;;15.70;100.00;101821.97;5051173;28;20558;-65
2023/10/09 07:00:51;;;;;;;23.55;14.30;;;;;;;15.71;100.00;101835.47;5066390;28;20045;-64
2023/10/09 07:03:19;;;;;;;20.85;12.30;;;;;;;15.71;100.00;101827.22;5054429;28;20045;-63
2023/10/09 07:06:23;;;;;;;16.98;10.15;;;;;;;15.71;100.00;101829.97;5054260;28;20052;-64
2023/10/09 07:12:09;;;;;;;19.10;9.63;;;;;;;15.76;100.00;101793.41;5052789;28;20144;-63
2023/10/09 07:16:23;;;;;;;19.08;10.55;;;;;;;15.77;100.00;101776.63;5067804;28;20053;-63
2023/10/09 07:18:23;;;;;;;18.73;11.48;;;;;;;15.79;100.00;101794.78;5065444;28;20044;-63
2023/10/09 07:21:17;;;;;;;24.83;14.13;;;;;;;15.76;100.00;101824.44;5066570;28;20098;-64
2023/10/09 07:24:17;;;;;;;21.88;13.18;;;;;;;15.76;100.00;101829.94;5053278;28;20704;-63
2023/10/09 07:27:12;;;;;;;19.65;11.63;;;;;;;15.79;100.00;101836.00;5070028;28;20205;-64
2023/10/09 07:30:00;;;;;;;25.30;15.30;;;;;;;15.77;100.00;101844.50;5050799;28;20091;-63
2023/10/09 07:32:52;;;;;;;25.10;15.60;;;;;;;15.76;100.00;101854.69;5051952;28;20049;-65
2023/10/09 07:35:47;;;;;;;27.42;15.90;;;;;;;15.76;100.00;101873.09;5059432;28;20053;-64
2023/10/09 07:38:35;;;;;;;28.52;16.25;;;;;;;15.74;100.00;101878.84;5060301;28;20045;-62
2023/10/09 07:44:34;;;;;;;31.67;16.05;;;;;;;15.75;100.00;101864.03;5054586;28;20493;-65
2023/10/09 07:50:48;;;;;;;24.42;14.48;;;;;;;15.72;100.00;101886.56;5072887;28;20051;-64
2023/10/09 07:53:43;;;;;;;23.27;13.30;;;;;;;15.75;100.00;101869.53;5073313;28;20051;-63
2023/10/09 07:56:38;;;;;;;22.73;13.38;;;;;;;15.76;100.00;101840.94;5072658;28;20049;-65
2023/10/09 07:59:27;;;;;;;17.45;11.65;;;;;;;15.77;100.00;101834.31;5070464;28;20080;-63
2023/10/09 08:02:16;;;;;;;22.00;13.07;;;;;;;15.81;100.00;101833.78;5073099;28;20040;-65
2023/10/09 08:05:18;;;;;;;23.00;12.65;;;;;;;15.84;100.00;101841.47;5072639;28;20094;-63
2023/10/09 08:17:23;;;;;;;20.45;11.70;;;;;;;15.95;100.00;101823.84;5075961;28;20576;-63
2023/10/09 08:20:11;;;;;;;25.95;13.80;;;;;;;16.01;100.00;101811.72;5075292;28;20162;-64
2023/10/09 08:22:59;;;;;;;30.75;14.05;;;;;;;16.03;100.00;101798.53;5075557;28;20048;-64
2023/10/09 08:26:10;;;;;;;28.05;14.40;;;;;;;16.09;100.00;101794.66;5057917;28;20139;-62
2023/10/09 08:29:17;;;;;;;25.75;14.02;;;;;;;16.07;100.00;101794.13;5073651;28;20056;-63
2023/10/09 08:32:18;;;;;;;21.73;13.52;;;;;;;16.07;100.00;101804.31;5072747;28;20185;-63
2023/10/09 08:35:47;;;;;;;25.33;14.65;;;;;;;16.08;100.00;101804.00;5064325;28;20507;-63
2023/10/09 08:38:36;;;;;;;27.00;15.30;;;;;;;16.07;100.00;101805.13;5072062;28;20044;-64
2023/10/09 08:41:29;;;;;;;25.20;14.95;;;;;;;16.08;100.00;101823.25;5074044;28;20067;-64
2023/10/09 08:44:23;;;;;;;25.88;15.35;;;;;;;16.09;100.00;101830.41;5072593;28;20048;-64
2023/10/09 08:47:11;;;;;;;27.80;15.73;;;;;;;16.11;100.00;101839.19;5058888;28;20515;-64
2023/10/09 08:49:59;;;;;;;29.08;15.52;;;;;;;16.12;100.00;101862.84;5071194;28;20480;-63
2023/10/09 08:52:51;;;;;;;29.17;15.70;;;;;;;16.14;100.00;101849.63;5071072;28;20135;-64
2023/10/09 08:55:40;;;;;;;23.13;14.07;;;;;;;16.18;100.00;101849.88;5058160;28;20037;-64
2023/10/09 08:58:34;;;;;;;24.50;14.02;;;;;;;16.21;100.00;101876.00;5069877;28;20041;-64
2023/10/09 09:01:24;;;;;;;23.45;12.57;;;;;;;16.26;100.00;101881.47;5072565;28;20052;-65
2023/10/09 09:04:39;;;;;;;25.00;15.05;;;;;;;16.35;100.00;101886.09;5070843;28;20423;-63
2023/10/09 09:07:31;;;;;;;27.35;17.13;;;;;;;16.35;100.00;101877.03;5071730;28;20190;-63
2023/10/09 09:10:35;;;;;;;28.08;15.55;;;;;;;16.37;100.00;101891.34;5073526;28;20045;-63
2023/10/09 09:13:23;;;;;;;27.35;16.92;;;;;;;16.38;100.00;101885.56;5059091;28;20048;-63
2023/10/09 09:16:22;;;;;;;29.02;16.63;;;;;;;16.39;100.00;101884.44;5074434;28;20048;-63
2023/10/09 09:22:12;;;;;;;28.80;15.05;;;;;;;16.46;100.00;101884.16;5071626;28;20051;-63
2023/10/09 09:25:02;;;;;;;27.13;16.75;;;;;;;16.48;100.00;101883.88;5072450;28;20048;-64
2023/10/09 09:28:05;;;;;;;29.70;17.52;;;;;;;16.50;100.00;101888.00;5072074;28;20435;-63
2023/10/09 09:30:55;;;;;;;27.95;17.77;;;;;;;16.52;100.00;101888.53;5072905;28;20516;-62
2023/10/09 09:33:44;;;;;;;31.00;17.35;;;;;;;16.55;100.00;101893.47;5071806;28;20037;-63
2023/10/09 09:36:34;;;;;;;23.63;14.40;;;;;;;16.57;100.00;101902.28;5070967;28;20412;-62
2023/10/09 09:39:29;;;;;;;34.97;16.98;;;;;;;16.60;100.00;101898.13;5070261;28;20041;-64
2023/10/09 09:42:34;;;;;;;33.72;18.60;;;;;;;16.65;100.00;101908.31;5058962;28;20032;-64
2023/10/09 09:45:24;;;;;;;29.65;17.45;;;;;;;16.68;100.00;101910.47;5072213;28;20055;-64
2023/10/09 09:48:15;;;;;;;28.00;16.50;;;;;;;16.71;100.00;101907.16;5042248;28;20102;-63
2023/10/09 09:51:05;;;;;;;30.38;18.30;;;;;;;16.73;100.00;101904.94;5044566;28;20060;-65
2023/10/09 09:53:55;;;;;;;32.60;19.25;;;;;;;16.75;100.00;101906.31;5072316;28;20041;-62
2023/10/09 09:56:51;;;;;;;33.47;19.25;;;;;;;16.76;100.00;101904.38;5071829;28;20128;-64
2023/10/09 09:59:49;;;;;;;30.92;18.42;;;;;;;16.79;100.00;101904.69;5072401;28;20056;-63
2023/10/09 10:02:38;;;;;;;33.80;18.60;;;;;;;16.81;100.00;101907.13;5071507;28;20048;-62
2023/10/09 10:05:29;;;;;;;31.73;20.02;;;;;;;16.82;100.00;101906.84;5048355;28;20044;-61
2023/10/09 10:08:20;;;;;;;34.75;19.63;;;;;;;16.86;100.00;101914.53;5073036;28;20707;-62
2023/10/09 10:11:13;;;;;;;30.60;19.25;;;;;;;16.88;100.00;101913.13;5070468;28;20048;-62
2023/10/09 10:14:10;;;;;;;32.00;19.63;;;;;;;16.92;100.00;101908.72;5060767;28;20047;-62
2023/10/09 10:17:05;;;;;;;36.00;19.15;;;;;;;16.94;100.00;101909.25;5077998;28;20463;-63
2023/10/09 10:20:18;;;;;;;30.45;20.00;;;;;;;16.98;100.00;101912.25;5060922;28;20408;-63
2023/10/09 10:23:21;;;;;;;27.13;18.50;;;;;;;17.00;100.00;101908.13;5059797;28;20044;-63
2023/10/09 10:26:26;;;;;;;31.30;19.35;;;;;;;17.02;100.00;101903.16;5057949;28;20098;-63
2023/10/09 10:29:26;;;;;;;33.55;18.33;;;;;;;17.08;100.00;101911.38;5075944;28;20127;-62
2023/10/09 10:32:18;;;;;;;37.47;18.70;;;;;;;17.11;100.00;101905.31;5062350;28;20447;-64
2023/10/09 10:35:06;;;;;;;30.13;18.23;;;;;;;17.14;100.00;101905.56;5054480;28;20127;-63
2023/10/09 10:38:11;;;;;;;33.85;18.08;;;;;;;17.20;100.00;101909.09;5063600;28;20078;-63
2023/10/09 10:41:19;;;;;;;33.85;18.02;;;;;;;17.24;100.00;101912.91;5073274;28;20142;-61
2023/10/09 10:44:34;;;;;;;28.41;19.69;;;;;;;17.27;100.00;101901.34;5013027;28;10001101;-64
2023/10/09 10:47:34;;;;;;;25.70;16.63;;;;;;;17.29;100.00;101903.78;4691945;28;10000710;-61
2023/10/09 10:53:19;;;;;;;27.05;16.10;;;;;;;17.36;100.00;101901.53;5052855;28;20111;-62
2023/10/09 10:56:51;;;;;;;27.30;13.85;;;;;;;17.41;100.00;101902.34;5069533;28;20040;-64
2023/10/09 10:59:26;;;;;;;27.63;14.15;;;;;;;17.45;100.00;101908.91;5071314;28;20056;-65
2023/10/09 11:02:27;;;;;;;23.05;12.80;;;;;;;17.50;100.00;101908.03;5071585;28;20572;-64
2023/10/09 11:05:25;;;;;;;28.75;13.27;;;;;;;17.55;100.00;101902.47;5071178;28;20052;-64
2023/10/09 11:08:13;;;;;;;28.05;13.10;;;;;;;17.61;100.00;101911.53;5072577;28;20037;-63
2023/10/09 11:11:15;;;;;;;20.85;12.25;;;;;;;17.65;100.00;101915.34;5062763;28;20131;-64
2023/10/09 11:14:23;;;;;;;26.45;12.90;;;;;;;17.70;100.00;101911.72;5055904;28;20063;-63
2023/10/09 11:17:25;;;;;;;29.73;13.50;;;;;;;17.74;100.00;101897.06;5050807;28;20374;-63
2023/10/09 11:20:24;;;;;;;29.95;14.38;;;;;;;17.79;100.00;101899.78;5022407;28;20052;-63
2023/10/09 11:29:14;;;;;;;27.58;13.43;;;;;;;17.88;100.00;101908.28;5057009;28;20206;-64
2023/10/09 11:32:09;;;;;;;23.77;12.98;;;;;;;17.92;100.00;101903.00;5055718;28;20079;-63
2023/10/09 11:35:21;;;;;;;29.38;13.88;;;;;;;17.95;100.00;101910.72;5054733;28;20131;-64
2023/10/09 11:38:23;;;;;;;26.17;14.98;;;;;;;17.96;100.00;101904.88;5068745;28;20493;-64
2023/10/09 11:41:24;;;;;;;23.02;12.75;;;;;;;18.00;100.00;101905.13;5067053;28;20253;-62
2023/10/09 11:44:19;;;;;;;23.15;12.30;;;;;;;17.99;100.00;101897.97;5070729;28;20047;-62
2023/10/09 11:50:12;;;;;;;21.88;13.25;;;;;;;18.05;100.00;101896.81;5058307;28;20049;-62
2023/10/09 11:53:17;;;;;;;24.27;12.35;;;;;;;18.05;100.00;101891.28;5069142;28;20052;-64
2023/10/09 11:56:09;;;;;;;24.17;12.65;;;;;;;18.09;100.00;101900.63;5057855;28;20053;-62
2023/10/09 11:58:58;;;;;;;22.40;11.80;;;;;;;18.13;100.00;101907.19;5034222;28;20060;-60
2023/10/09 12:01:52;;;;;;;22.67;11.52;;;;;;;18.16;100.00;101914.91;5066784;28;20049;-61
2023/10/09 12:04:44;;;;;;;19.98;11.45;;;;;;;18.18;100.00;101909.88;5069002;28;20094;-62
2023/10/09 12:07:38;;;;;;;20.45;11.45;;;;;;;18.22;100.00;101897.16;5072526;28;20080;-64
2023/10/09 12:10:26;;;;;;;22.23;12.02;;;;;;;18.25;100.00;101896.56;5057643;28;20525;-62
2023/10/09 12:13:15;;;;;;;24.42;12.40;;;;;;;18.26;100.00;101902.94;5056880;28;20040;-62
2023/10/09 12:16:08;;;;;;;23.35;11.70;;;;;;;18.28;100.00;101904.28;5073372;28;20404;-63
2023/10/09 12:18:56;;;;;;;20.52;11.13;;;;;;;18.28;100.00;101890.47;5025903;28;20051;-64
2023/10/09 12:21:44;;;;;;;23.67;11.23;;;;;;;18.25;100.00;101893.81;5052371;28;20048;-64
2023/10/09 12:24:33;;;;;;;19.73;11.13;;;;;;;18.28;100.00;101887.72;5050505;28;20098;-61
2023/10/09 12:27:22;;;;;;;21.92;11.38;;;;;;;18.29;100.00;101881.06;5071335;28;20155;-64
2023/10/09 12:30:10;;;;;;;19.73;10.60;;;;;;;18.30;100.00;101874.47;5072002;28;20051;-64
2023/10/09 12:32:58;;;;;;;18.77;10.82;;;;;;;18.32;100.00;101882.41;5071935;28;20555;-63
2023/10/09 12:35:48;;;;;;;17.52;10.27;;;;;;;18.33;100.00;101867.53;5039304;28;20578;-63
2023/10/09 12:38:36;;;;;;;20.42;10.95;;;;;;;18.35;100.00;101872.72;5039188;28;20524;-62
2023/10/09 12:41:28;;;;;;;23.17;10.73;;;;;;;18.35;100.00;101867.22;5052113;28;20087;-62
2023/10/09 12:44:19;;;;;;;18.85;10.55;;;;;;;18.36;100.00;101857.84;5061677;28;20036;-62
2023/10/09 12:47:11;;;;;;;19.10;10.60;;;;;;;18.37;100.00;101848.44;5069897;28;20063;-63
2023/10/09 12:49:59;;;;;;;21.48;9.45;;;;;;;18.40;100.00;101853.34;5056277;28;20055;-63
2023/10/09 12:52:50;;;;;;;22.50;10.90;;;;;;;18.42;100.00;101840.06;5042776;28;20131;-62
2023/10/09 12:55:42;;;;;;;18.63;9.63;;;;;;;18.43;100.00;101844.50;5070914;28;20047;-63
2023/10/09 12:58:30;;;;;;;20.88;10.25;;;;;;;18.45;100.00;101851.38;5058249;28;20048;-62
2023/10/09 13:01:20;;;;;;;21.67;11.27;;;;;;;18.49;100.00;101844.09;5052825;28;20048;-62
2023/10/09 13:04:17;;;;;;;25.98;10.70;;;;;;;18.52;100.00;101856.53;5072613;28;20049;-63
2023/10/09 13:07:07;;;;;;;18.33;9.50;;;;;;;18.56;100.00;101846.50;5059812;28;20048;-63
2023/10/09 13:10:13;;;;;;;21.00;10.10;;;;;;;18.56;100.00;101849.28;5070945;28;20131;-60
2023/10/09 13:13:05;;;;;;;19.60;10.20;;;;;;;18.60;100.00;101853.09;5052272;28;20128;-63
2023/10/09 13:15:53;;;;;;;17.85;9.13;;;;;;;18.61;100.00;101857.47;5069553;28;20496;-63
2023/10/09 13:18:49;;;;;;;16.60;9.10;;;;;;;18.63;100.00;101855.25;5038199;28;20083;-62
2023/10/09 13:21:42;;;;;;;20.20;10.25;;;;;;;18.66;100.00;101856.59;5058798;28;20072;-63
2023/10/09 13:24:30;;;;;;;19.27;9.57;;;;;;;18.67;100.00;101859.06;5056348;28;20412;-63
2023/10/09 13:27:21;;;;;;;15.93;9.43;;;;;;;18.70;100.00;101858.47;5058108;28;20063;-64
2023/10/09 13:30:21;;;;;;;16.83;8.75;;;;;;;18.71;100.00;101871.16;5045736;28;20413;-64
2023/10/09 13:33:16;;;;;;;19.30;8.52;;;;;;;18.74;100.00;101878.03;5041245;28;20041;-62
2023/10/09 13:36:15;;;;;;;17.52;9.48;;;;;;;18.77;100.00;101873.88;5073698;28;20463;-64
2023/10/09 13:42:07;;;;;;;21.75;8.82;;;;;;;18.82;100.00;101871.84;5071693;28;20133;-62
2023/10/09 13:44:56;;;;;;;21.05;8.60;;;;;;;18.86;100.00;101872.09;5059153;28;20044;-63
2023/10/09 13:47:44;;;;;;;19.85;8.77;;;;;;;18.86;100.00;101872.91;5061845;28;20131;-64
2023/10/09 13:50:32;;;;;;;19.27;9.23;;;;;;;18.89;100.00;101871.50;5053199;28;20044;-63
2023/10/09 13:53:21;;;;;;;17.73;8.75;;;;;;;18.91;100.00;101874.78;5076285;28;20044;-61
2023/10/09 13:56:14;;;;;;;22.58;9.43;;;;;;;18.91;100.00;101877.53;5075041;28;20514;-63
2023/10/09 13:59:03;;;;;;;22.35;9.40;;;;;;;18.91;100.00;101881.13;5075437;28;20048;-61
2023/10/09 14:01:54;;;;;;;21.48;8.98;;;;;;;18.92;100.00;101879.16;5052377;28;20106;-63
2023/10/09 14:04:43;;;;;;;20.17;8.80;;;;;;;18.94;100.00;101877.75;5057874;28;20037;-63
2023/10/09 14:07:34;;;;;;;20.92;8.80;;;;;;;18.94;100.00;101865.88;5042049;28;20053;-64
2023/10/09 14:10:26;;;;;;;17.42;8.48;;;;;;;18.95;100.00;101875.81;5043852;28;20056;-62
2023/10/09 14:13:17;;;;;;;21.80;9.00;;;;;;;18.96;100.00;101874.69;5061725;28;20048;-61
2023/10/09 14:16:06;;;;;;;18.05;8.90;;;;;;;18.98;100.00;101866.09;5075378;28;20361;-64
2023/10/09 14:18:59;;;;;;;22.55;8.57;;;;;;;18.98;100.00;101855.91;5060823;28;20056;-63
2023/10/09 14:21:49;;;;;;;18.52;8.60;;;;;;;18.98;100.00;101853.13;5060814;28;20050;-63
2023/10/09 14:24:38;;;;;;;20.92;8.32;;;;;;;18.98;100.00;101855.91;5049398;28;20484;-62
2023/10/09 14:27:29;;;;;;;17.73;7.82;;;;;;;18.98;100.00;101864.19;5055685;28;20417;-63
2023/10/09 14:30:25;;;;;;;19.73;9.40;;;;;;;18.98;100.00;101863.34;5071302;28;20041;-62
2023/10/09 14:33:13;;;;;;;17.38;8.75;;;;;;;18.99;100.00;101860.28;5028082;28;20505;-63
2023/10/09 14:36:02;;;;;;;17.55;7.97;;;;;;;18.99;100.00;101865.81;5053029;28;20143;-62
2023/10/09 14:38:55;;;;;;;15.95;8.25;;;;;;;19.01;100.00;101860.00;5060253;28;20048;-62